This demonstration page uses our WeatherBlox Daily Observations layout. Learn more.

41.55636, -103.73856

Hourly Observations for January 11, 2019

Temp ( °F °C ) Dew Point ( °F °C ) Humidity (%) Winds ( mph kmh ) Pressure ( in mb ) Visibility ( mi km ) Precip ( " mm )
12:58 am 00:58 Clear 35 1.6 22 -5.6 59 59 WNW 9 15 30.07 1018 10 16.0934 N/A
1:58 am 01:58 Clear 34 1.3 22 -5.6 60 60 WNW 9 15 30.07 1018 10 16.0934 N/A
2:58 am 02:58 Clear 32 0 22 -5.3 68 68 NW 6 9 30.1 1019 10 16.0934 N/A
3:58 am 03:58 Clear 30 -1 23 -5.2 73 73 NW 9 15 30.16 1021 10 16.0934 N/A
4:58 am 04:58 Mostly Cloudy 31 -0.6 22 -5.5 70 70 WNW 6 9 30.16 1021 10 16.0934 N/A
5:58 am 05:58 Clear 32 0.2 23 -4.9 69 69 NW 9 15 30.15 1021 10 16.0934 N/A
6:58 am 06:58 Mostly Clear 36 2.1 24 -4.5 62 62 NNW 10 17 30.11 1020 10 16.0934 N/A
7:58 am 07:58 Mostly Cloudy 31 -0.3 23 -4.8 72 72 NW 8 13 30.16 1021 10 16.0934 N/A
8:58 am 08:58 Clear 28 -2.1 22 -5.3 79 79 NW 9 15 30.22 1023 10 16.0934 N/A
9:58 am 09:58 Clear 30 -1.2 23 -5.2 75 75 WNW 5 7 30.2 1023 10 16.0934 N/A
10:58 am 10:58 Partly Cloudy 28 -2 23 -4.8 81 81 NNW 7 11 30.09 1019 10 16.0934 N/A
11:58 am 11:58 Mostly Cloudy 34 1 25 -4.1 69 69 N 14 22 30.09 1019 10 16.0934 N/A
12:58 pm 12:58 Mostly Cloudy 32 0.2 24 -4.5 71 71 NNW 10 17 30.13 1020 10 16.0934 N/A
1:58 pm 13:58 Cloudy 31 -0.5 24 -4.3 76 76 NW 7 11 30.14 1021 10 16.0934 N/A
2:58 pm 14:58 Partly Cloudy 31 -0.3 25 -4.1 76 76 NNW 13 20 30.16 1021 10 16.0934 N/A
3:58 pm 15:58 Sunny 34 0.9 27 -2.7 77 77 NNW 9 15 30.19 1022 10 16.0934 N/A
4:58 pm 16:58 Mostly Cloudy 35 1.5 30 -1.3 82 82 N 14 22 30.2 1023 10 16.0934 N/A
5:58 pm 17:58 Cloudy with Light Showers 36 2.2 30 -1.3 78 78 NNW 12 19 30.2 1023 10 16.0934 N/A
6:58 pm 18:58 Cloudy with Light Showers 35 1.9 32 -0.1 87 87 N 12 19 30.15 1021 10 16.0934 N/A
7:58 pm 19:58 Cloudy with Light Rain 34 1.2 33 0.3 94 94 N 10 17 30.18 1022 10 16.0934 0.02 0.508
8:58 pm 20:58 Mostly Cloudy with Light Rain 35 1.7 33 0.8 94 94 N 13 20 30.18 1022 10 16.0934 0.01 0.254
9:58 pm 21:58 Mostly Cloudy with Light Rain 33 0.7 32 -0.1 94 94 N 13 20 30.2 1023 3 4.82802 N/A
10:58 pm 22:58 Mostly Cloudy with Light Rain/Snow 32 0.1 31 -0.5 96 96 N 10 17 30.23 1024 3 4.82802 0.04 1.016
11:58 pm 23:58 Mostly Cloudy with Rain/Snow 32 0.1 31 -0.5 96 96 N 10 17 30.21 1023 3 4.82802 0.04 1.016

Powered by AerisWeather